Time;durP1;ratioP1;P1;durP2;ratioP2;P2;SDS_P1;SDS_P2;PMS_P1;PMS_P2;Temp;Humidity;BMP_temperature;BMP_pressure;BME280_temperature;BME280_humidity;BME280_pressure;Samples;Min_cycle;Max_cycle;Signal;HPM_P1;HPM_P2
2022/04/02 00:02:18;;;;;;;7.57;2.10;;;3.20;87.40;;;;;;5070047;27;36280;-48
2022/04/02 00:04:45;;;;;;;6.75;2.28;;;3.20;87.30;;;;;;5072425;28;38938;-51
2022/04/02 00:07:15;;;;;;;6.63;2.10;;;3.20;87.40;;;;;;5071805;27;37426;-51
2022/04/02 00:09:43;;;;;;;5.18;2.42;;;3.20;88.20;;;;;;5071512;28;36118;-51
2022/04/02 00:12:10;;;;;;;6.45;2.33;;;3.20;87.10;;;;;;5071055;27;37447;-49
2022/04/02 00:14:37;;;;;;;5.47;1.80;;;3.20;86.70;;;;;;5071836;28;37695;-52
2022/04/02 00:17:05;;;;;;;6.32;2.22;;;3.20;86.70;;;;;;5071843;28;39561;-50
2022/04/02 00:19:33;;;;;;;6.40;2.15;;;3.20;86.60;;;;;;5071136;27;36604;-52
2022/04/02 00:22:00;;;;;;;5.20;2.17;;;3.10;86.40;;;;;;5071266;27;38585;-49
2022/04/02 00:24:29;;;;;;;8.93;2.40;;;3.00;86.50;;;;;;5071125;27;38840;-51
2022/04/02 00:26:56;;;;;;;8.93;2.25;;;2.90;86.00;;;;;;5071365;27;35960;-49
2022/04/02 00:29:23;;;;;;;5.97;2.00;;;2.80;86.30;;;;;;5071565;27;36387;-48
2022/04/02 00:31:50;;;;;;;3.80;1.85;;;2.70;86.90;;;;;;5072075;27;36543;-50
2022/04/02 00:34:18;;;;;;;8.43;1.90;;;2.60;87.40;;;;;;5071022;27;37859;-52
2022/04/02 00:36:45;;;;;;;5.65;2.17;;;2.50;87.80;;;;;;5070846;27;38363;-52
2022/04/02 00:39:13;;;;;;;4.90;1.92;;;2.40;88.40;;;;;;5071449;28;36815;-51
2022/04/02 00:41:41;;;;;;;7.10;2.22;;;2.30;88.70;;;;;;5071362;27;37486;-51
2022/04/02 00:44:11;;;;;;;3.08;1.58;;;2.30;89.30;;;;;;5069013;27;37226;-49
2022/04/02 00:46:40;;;;;;;5.93;2.45;;;2.20;90.10;;;;;;5070625;27;38311;-49
2022/04/02 00:49:08;;;;;;;7.20;2.58;;;2.20;90.10;;;;;;5070741;28;36463;-51
2022/04/02 00:51:41;;;;;;;9.43;2.35;;;2.20;90.00;;;;;;5071093;27;37481;-50
2022/04/02 00:54:10;;;;;;;7.30;2.38;;;2.20;90.00;;;;;;5070760;27;37615;-48
2022/04/02 00:56:38;;;;;;;6.65;1.92;;;2.10;90.00;;;;;;5070611;28;37364;-51
2022/04/02 00:59:08;;;;;;;9.35;3.05;;;2.10;90.00;;;;;;5070499;27;36651;-51
2022/04/02 01:01:36;;;;;;;5.97;3.05;;;2.10;90.20;;;;;;5070499;27;36173;-51
2022/04/02 01:04:04;;;;;;;5.65;2.35;;;2.10;90.40;;;;;;5071456;27;37180;-47
2022/04/02 01:06:33;;;;;;;6.95;2.45;;;2.00;90.40;;;;;;5071042;27;37124;-48
2022/04/02 01:09:02;;;;;;;7.72;2.45;;;2.10;90.50;;;;;;5072607;28;35191;-52
2022/04/02 01:11:36;;;;;;;6.05;2.65;;;2.00;90.60;;;;;;5072957;27;36237;-51
2022/04/02 01:14:04;;;;;;;6.63;2.58;;;2.00;90.50;;;;;;5073702;27;36490;-51
2022/04/02 01:16:33;;;;;;;5.88;2.78;;;1.90;90.60;;;;;;5073954;27;36707;-49
2022/04/02 01:19:01;;;;;;;5.60;2.30;;;1.90;90.60;;;;;;5072363;27;35294;-48
2022/04/02 01:21:29;;;;;;;8.63;2.72;;;1.90;90.70;;;;;;5072821;28;37162;-51
2022/04/02 01:23:58;;;;;;;8.15;2.50;;;1.90;90.70;;;;;;5072677;27;38436;-49
2022/04/02 01:26:26;;;;;;;6.63;2.47;;;1.90;90.60;;;;;;5073365;28;37172;-50
2022/04/02 01:28:56;;;;;;;10.73;2.72;;;1.90;90.70;;;;;;5073764;27;36482;-47
2022/04/02 01:31:24;;;;;;;9.13;2.88;;;2.00;90.70;;;;;;5073881;27;36262;-49
2022/04/02 01:33:52;;;;;;;8.20;2.25;;;2.00;90.50;;;;;;5074370;27;39316;-51
2022/04/02 01:36:20;;;;;;;7.85;2.50;;;2.00;90.50;;;;;;5074775;28;37097;-51
2022/04/02 01:38:48;;;;;;;6.45;2.45;;;2.00;90.50;;;;;;5074058;27;36688;-52
2022/04/02 01:41:17;;;;;;;7.97;2.38;;;2.00;90.40;;;;;;5073715;27;38292;-50
2022/04/02 01:43:45;;;;;;;7.72;2.55;;;2.20;90.30;;;;;;5073587;27;40321;-49
2022/04/02 01:46:13;;;;;;;9.55;2.30;;;2.00;90.30;;;;;;5072844;27;37334;-49
2022/04/02 01:48:41;;;;;;;8.35;2.22;;;2.00;90.50;;;;;;5073505;27;36604;-50
2022/04/02 01:51:09;;;;;;;6.18;2.30;;;2.00;90.30;;;;;;5073994;28;36880;-48
2022/04/02 01:53:36;;;;;;;7.55;2.50;;;1.90;90.50;;;;;;5071652;28;37623;-51
2022/04/02 01:56:04;;;;;;;6.10;2.47;;;1.90;90.30;;;;;;5073266;27;38111;-49
2022/04/02 01:58:32;;;;;;;5.40;2.40;;;1.80;90.40;;;;;;5072848;27;36309;-48
2022/04/02 02:00:59;;;;;;;5.75;2.00;;;1.70;90.60;;;;;;5073481;28;38767;-49
2022/04/02 02:03:27;;;;;;;9.70;2.47;;;1.70;90.70;;;;;;5073582;27;37779;-51
2022/04/02 02:05:55;;;;;;;6.18;2.10;;;1.70;90.90;;;;;;5073034;27;38150;-48
2022/04/02 02:08:23;;;;;;;4.88;2.13;;;1.70;90.90;;;;;;5072901;28;37411;-52
2022/04/02 02:10:50;;;;;;;7.88;2.47;;;1.60;91.00;;;;;;5073850;27;36151;-51
2022/04/02 02:13:17;;;;;;;8.15;2.10;;;1.70;91.20;;;;;;5073812;27;37578;-50
2022/04/02 02:15:46;;;;;;;5.82;2.00;;;1.70;91.30;;;;;;5073261;28;37502;-50
2022/04/02 02:18:14;;;;;;;6.25;2.15;;;1.70;91.40;;;;;;5072256;27;37668;-50
2022/04/02 02:20:42;;;;;;;6.07;2.13;;;1.70;91.30;;;;;;5073047;27;38333;-51
2022/04/02 02:23:10;;;;;;;9.45;2.10;;;1.70;91.20;;;;;;5073065;27;38172;-48
2022/04/02 02:25:37;;;;;;;5.82;2.45;;;1.70;91.40;;;;;;5072468;28;38112;-50
2022/04/02 02:28:05;;;;;;;7.40;2.40;;;1.70;91.30;;;;;;5073574;27;36467;-50
2022/04/02 02:30:33;;;;;;;6.07;2.53;;;1.70;91.60;;;;;;5074146;28;20133;-51
2022/04/02 02:35:52;;;;;;;8.15;2.35;;;1.70;91.70;;;;;;5073190;28;39954;-50
2022/04/02 02:38:22;;;;;;;7.32;2.25;;;1.70;91.70;;;;;;5071101;27;37099;-50
2022/04/02 02:40:51;;;;;;;5.97;2.10;;;1.80;91.70;;;;;;5071810;27;37178;-48
2022/04/02 02:43:19;;;;;;;5.10;2.55;;;1.70;91.90;;;;;;5072111;28;40554;-50
2022/04/02 02:45:47;;;;;;;9.10;2.20;;;1.70;92.20;;;;;;5071306;28;36928;-51
2022/04/02 02:48:16;;;;;;;5.13;1.60;;;1.60;92.40;;;;;;5072425;27;36020;-49
2022/04/02 02:50:43;;;;;;;4.97;2.17;;;1.60;92.50;;;;;;5071828;28;37299;-48
2022/04/02 02:53:11;;;;;;;6.57;2.00;;;1.50;92.70;;;;;;5073530;27;39007;-49
2022/04/02 02:55:39;;;;;;;9.93;2.40;;;1.40;92.60;;;;;;5072338;27;37505;-48
2022/04/02 02:58:07;;;;;;;5.85;2.45;;;1.40;93.00;;;;;;5072700;28;35377;-51
2022/04/02 03:00:35;;;;;;;7.38;2.78;;;1.30;93.20;;;;;;5072655;28;36281;-50
2022/04/02 03:03:02;;;;;;;4.47;2.10;;;1.20;93.50;;;;;;5072286;27;39260;-48
2022/04/02 03:05:31;;;;;;;4.63;2.05;;;1.30;93.70;;;;;;5072378;28;38774;-48
2022/04/02 03:07:58;;;;;;;5.80;2.03;;;1.30;93.80;;;;;;5070579;27;36432;-49
2022/04/02 03:10:27;;;;;;;5.30;2.05;;;1.30;93.70;;;;;;5072531;27;37710;-50
2022/04/02 03:12:56;;;;;;;9.68;2.15;;;1.40;93.70;;;;;;5072472;28;37667;-52
2022/04/02 03:15:25;;;;;;;4.25;1.70;;;1.40;93.50;;;;;;5072532;27;38175;-48
2022/04/02 03:17:53;;;;;;;4.90;1.95;;;1.40;93.10;;;;;;5072564;27;37192;-48
2022/04/02 03:20:22;;;;;;;9.90;1.92;;;1.40;92.80;;;;;;5072586;27;36463;-48
2022/04/02 03:22:51;;;;;;;6.05;1.77;;;1.40;92.60;;;;;;5073215;27;37805;-48
2022/04/02 03:25:20;;;;;;;6.43;1.80;;;1.40;92.30;;;;;;5071943;28;37189;-51
2022/04/02 03:27:48;;;;;;;4.47;1.85;;;1.40;92.10;;;;;;5071970;28;35292;-50
2022/04/02 03:30:17;;;;;;;5.10;2.10;;;1.40;91.70;;;;;;5070449;27;39052;-48
2022/04/02 03:32:46;;;;;;;7.60;2.10;;;1.40;91.40;;;;;;5071350;27;36374;-47
2022/04/02 03:35:14;;;;;;;5.18;1.98;;;1.30;91.10;;;;;;5071548;28;37023;-50
2022/04/02 03:37:43;;;;;;;4.50;1.88;;;1.30;91.10;;;;;;5071374;27;36057;-50
2022/04/02 03:40:14;;;;;;;4.75;1.60;;;1.40;91.10;;;;;;5072320;28;37961;-51
2022/04/02 03:42:44;;;;;;;6.13;1.42;;;0.80;91.00;;;;;;5071747;28;36494;-50
2022/04/02 03:45:14;;;;;;;6.38;1.42;;;1.40;90.70;;;;;;5071538;28;37362;-51
2022/04/02 03:47:42;;;;;;;5.70;1.80;;;1.50;90.40;;;;;;5071630;27;35337;-50
2022/04/02 03:50:10;;;;;;;4.63;1.42;;;1.50;90.20;;;;;;5071842;27;37722;-47
2022/04/02 03:52:37;;;;;;;6.90;1.67;;;1.50;89.90;;;;;;5071432;27;37625;-49
2022/04/02 03:55:06;;;;;;;6.32;1.52;;;1.50;89.70;;;;;;5071025;27;38178;-51
2022/04/02 03:57:35;;;;;;;5.57;1.35;;;1.40;89.60;;;;;;5071327;27;36278;-51
2022/04/02 04:00:04;;;;;;;3.20;1.10;;;1.40;89.60;;;;;;5071048;27;37726;-48
2022/04/02 04:02:32;;;;;;;4.40;1.23;;;1.40;89.70;;;;;;5069117;27;37930;-51
2022/04/02 04:05:00;;;;;;;8.38;1.63;;;1.40;90.20;;;;;;5069706;28;38267;-49
2022/04/02 04:07:29;;;;;;;6.40;1.42;;;1.50;90.40;;;;;;5071068;27;35209;-51
2022/04/02 04:09:57;;;;;;;5.63;1.30;;;1.50;90.20;;;;;;5070172;27;38058;-49
2022/04/02 04:12:24;;;;;;;7.13;1.27;;;1.50;90.00;;;;;;5072120;27;36161;-49
2022/04/02 04:14:53;;;;;;;7.63;1.42;;;1.50;89.80;;;;;;5071606;27;37335;-47
2022/04/02 04:17:21;;;;;;;5.30;1.67;;;1.60;89.40;;;;;;5071602;27;36666;-48
2022/04/02 04:19:51;;;;;;;6.43;1.27;;;1.60;88.40;;;;;;5071665;27;38000;-49
2022/04/02 04:22:20;;;;;;;4.80;1.38;;;1.50;88.20;;;;;;5071197;27;37506;-52
2022/04/02 04:24:47;;;;;;;5.13;1.42;;;1.60;88.40;;;;;;5070425;28;37944;-51
2022/04/02 04:27:15;;;;;;;3.20;1.20;;;1.60;88.30;;;;;;5071906;27;36654;-51
2022/04/02 04:29:42;;;;;;;7.93;2.53;;;1.60;88.30;;;;;;5071034;27;37532;-47
2022/04/02 04:32:11;;;;;;;5.78;1.35;;;1.60;88.20;;;;;;5071044;28;37669;-49
2022/04/02 04:34:39;;;;;;;5.53;1.45;;;1.60;87.80;;;;;;5070515;27;37849;-50
2022/04/02 04:37:07;;;;;;;3.67;1.13;;;1.50;87.60;;;;;;5071598;27;35330;-49
2022/04/02 04:39:34;;;;;;;6.38;1.27;;;1.50;88.50;;;;;;5069808;27;37907;-48
2022/04/02 04:42:01;;;;;;;6.05;1.70;;;1.50;89.00;;;;;;5072495;27;37792;-51
2022/04/02 04:44:29;;;;;;;8.80;1.38;;;1.50;89.10;;;;;;5074297;27;36246;-49
2022/04/02 04:46:56;;;;;;;4.93;1.52;;;1.50;89.50;;;;;;5075966;27;37897;-50
2022/04/02 04:49:25;;;;;;;6.35;1.98;;;1.50;90.00;;;;;;5074940;28;39211;-50
2022/04/02 04:51:52;;;;;;;4.65;1.42;;;1.50;90.30;;;;;;5074992;27;38028;-49
2022/04/02 04:54:20;;;;;;;5.00;1.45;;;1.50;90.60;;;;;;5073814;27;36084;-51
2022/04/02 04:56:47;;;;;;;5.28;1.23;;;1.60;90.70;;;;;;5074390;27;37357;-51
2022/04/02 04:59:14;;;;;;;6.10;1.50;;;1.70;91.00;;;;;;5073412;27;37439;-51
2022/04/02 05:01:42;;;;;;;3.30;1.27;;;1.80;91.10;;;;;;5075013;27;37359;-51
2022/04/02 05:04:09;;;;;;;4.03;1.35;;;1.80;91.30;;;;;;5074624;27;37959;-51
2022/04/02 05:06:38;;;;;;;4.65;1.27;;;1.80;91.30;;;;;;5074241;28;36373;-51
2022/04/02 05:09:07;;;;;;;4.57;1.85;;;1.80;91.40;;;;;;5074100;27;37572;-48
2022/04/02 05:11:34;;;;;;;2.90;1.20;;;1.90;91.60;;;;;;5073798;28;38742;-50
2022/04/02 05:14:02;;;;;;;6.75;1.42;;;1.90;91.60;;;;;;5074659;27;37756;-51
2022/04/02 05:16:29;;;;;;;7.28;2.33;;;2.00;91.80;;;;;;5075177;28;36955;-48
2022/04/02 05:18:57;;;;;;;5.65;1.58;;;2.00;91.70;;;;;;5072962;27;37712;-51
2022/04/02 05:21:24;;;;;;;5.75;1.95;;;2.10;91.80;;;;;;5074623;28;36283;-51
2022/04/02 05:23:53;;;;;;;6.00;1.77;;;2.10;91.70;;;;;;5072972;27;37333;-48
2022/04/02 05:26:20;;;;;;;7.35;2.10;;;2.20;91.80;;;;;;5072788;27;36557;-48
2022/04/02 05:28:47;;;;;;;7.80;2.28;;;2.30;91.90;;;;;;5072716;28;38684;-48
2022/04/02 05:31:15;;;;;;;4.30;1.70;;;2.30;91.90;;;;;;5071114;27;39084;-51
2022/04/02 05:33:42;;;;;;;4.38;1.50;;;2.40;91.80;;;;;;5073012;27;37325;-50
2022/04/02 05:36:10;;;;;;;4.78;1.70;;;2.40;91.90;;;;;;5073925;28;37797;-51
2022/04/02 05:38:37;;;;;;;4.00;1.58;;;2.50;92.40;;;;;;5073687;28;36293;-49
2022/04/02 05:41:06;;;;;;;5.60;1.70;;;2.60;92.60;;;;;;5073687;27;39311;-51
2022/04/02 05:43:33;;;;;;;6.15;1.73;;;2.80;92.30;;;;;;5073770;27;37539;-47
2022/04/02 05:46:00;;;;;;;5.63;1.65;;;2.90;91.70;;;;;;5074695;27;37866;-50
2022/04/02 05:48:28;;;;;;;6.65;2.08;;;3.10;91.40;;;;;;5073990;28;37481;-50
2022/04/02 05:50:56;;;;;;;5.85;1.40;;;3.50;91.20;;;;;;5074108;27;37016;-48
2022/04/02 05:53:23;;;;;;;5.13;1.33;;;4.00;89.90;;;;;;5073196;28;38309;-50
2022/04/02 05:55:51;;;;;;;6.53;1.50;;;4.10;87.90;;;;;;5072732;28;35265;-51
2022/04/02 05:58:19;;;;;;;3.97;1.90;;;3.90;87.00;;;;;;5072016;27;37443;-49
2022/04/02 06:00:47;;;;;;;8.73;3.60;;;3.70;87.40;;;;;;5074509;27;38533;-49
2022/04/02 06:03:15;;;;;;;4.95;2.10;;;3.60;88.30;;;;;;5073484;28;37435;-48
2022/04/02 06:05:43;;;;;;;4.28;1.58;;;3.40;89.70;;;;;;5073145;27;37655;-49
2022/04/02 06:08:10;;;;;;;12.85;3.88;;;3.40;90.10;;;;;;5073161;28;36242;-48
2022/04/02 06:10:38;;;;;;;4.40;1.38;;;3.30;90.40;;;;;;5072983;27;38184;-49
2022/04/02 06:13:06;;;;;;;6.35;1.88;;;3.30;90.70;;;;;;5074253;27;37334;-51
2022/04/02 06:15:35;;;;;;;5.90;1.42;;;3.30;90.80;;;;;;5073911;27;36486;-50
2022/04/02 06:18:03;;;;;;;6.32;1.75;;;3.30;90.90;;;;;;5073944;27;37476;-47
2022/04/02 06:20:30;;;;;;;5.28;1.98;;;3.20;91.00;;;;;;5072450;28;37574;-51
2022/04/02 06:22:57;;;;;;;5.60;1.75;;;3.20;91.30;;;;;;5073717;27;36727;-51
2022/04/02 06:25:24;;;;;;;3.53;1.67;;;3.30;91.60;;;;;;5072428;27;37298;-50
2022/04/02 06:27:54;;;;;;;4.57;1.80;;;3.30;91.80;;;;;;5073373;27;36128;-51
2022/04/02 06:30:22;;;;;;;6.50;1.67;;;3.30;91.90;;;;;;5072357;28;37997;-51
2022/04/02 06:32:50;;;;;;;5.50;1.88;;;3.30;91.90;;;;;;5073249;28;37971;-49
2022/04/02 06:35:19;;;;;;;4.78;2.10;;;3.40;92.00;;;;;;5073952;27;37836;-50
2022/04/02 06:37:47;;;;;;;5.25;1.58;;;3.40;91.80;;;;;;5072263;28;39087;-48
2022/04/02 06:40:16;;;;;;;7.00;1.95;;;3.40;91.90;;;;;;5071357;27;38714;-50
2022/04/02 06:42:43;;;;;;;7.47;1.80;;;3.40;91.80;;;;;;5072996;28;37387;-51
2022/04/02 06:45:11;;;;;;;5.78;1.88;;;3.40;91.80;;;;;;5073056;27;34992;-51
2022/04/02 06:47:39;;;;;;;6.25;1.60;;;3.50;91.90;;;;;;5073329;27;38385;-49
2022/04/02 06:50:10;;;;;;;6.40;1.70;;;3.50;91.90;;;;;;5071375;27;38898;-48
2022/04/02 06:52:39;;;;;;;5.85;1.67;;;3.50;91.90;;;;;;5066167;27;39117;-48
2022/04/02 06:55:09;;;;;;;5.40;1.67;;;3.60;92.00;;;;;;5067566;28;36680;-51
2022/04/02 06:57:42;;;;;;;7.32;2.50;;;3.60;91.90;;;;;;5069041;27;37464;-51
2022/04/02 07:00:11;;;;;;;6.30;2.42;;;3.70;91.70;;;;;;5071051;27;37834;-48
2022/04/02 07:02:38;;;;;;;6.05;2.10;;;3.80;92.00;;;;;;5068657;27;38399;-49
2022/04/02 07:05:08;;;;;;;4.65;2.13;;;3.90;91.80;;;;;;5071401;27;37867;-49
2022/04/02 07:07:35;;;;;;;4.57;1.77;;;3.90;91.60;;;;;;5070499;27;38130;-48
2022/04/02 07:10:04;;;;;;;7.35;2.03;;;4.00;91.40;;;;;;5070419;28;37600;-51
2022/04/02 07:12:31;;;;;;;5.15;2.20;;;4.00;91.40;;;;;;5070726;28;38337;-50
2022/04/02 07:14:59;;;;;;;7.60;1.80;;;4.00;91.50;;;;;;5071582;27;35153;-49
2022/04/02 07:17:27;;;;;;;6.63;1.95;;;4.00;91.50;;;;;;5071530;27;37546;-50
2022/04/02 07:19:56;;;;;;;4.55;1.70;;;4.00;91.50;;;;;;5070784;27;39558;-51
2022/04/02 07:22:26;;;;;;;6.43;2.63;;;3.90;91.60;;;;;;5070887;27;37692;-49
2022/04/02 07:24:55;;;;;;;6.07;1.98;;;3.80;92.10;;;;;;5068937;27;35204;-50
2022/04/02 07:27:24;;;;;;;6.35;1.98;;;3.60;93.60;;;;;;5070991;28;37283;-50
2022/04/02 07:29:53;;;;;;;5.43;1.80;;;3.30;95.10;;;;;;5070893;27;39068;-51
2022/04/02 07:32:21;;;;;;;5.93;1.60;;;3.10;95.30;;;;;;5070653;28;37638;-50
2022/04/02 07:34:48;;;;;;;4.53;1.60;;;3.00;95.40;;;;;;5069985;28;37285;-52
2022/04/02 07:37:21;;;;;;;5.32;1.60;;;2.80;95.90;;;;;;5071984;27;36371;-47
2022/04/02 07:40:01;;;;;;;3.80;1.35;;;2.80;96.20;;;;;;5069826;27;38072;-50
2022/04/02 07:42:37;;;;;;;3.50;1.17;;;2.80;96.30;;;;;;5070549;28;40510;-50
2022/04/02 07:45:07;;;;;;;3.70;1.40;;;2.80;95.80;;;;;;5070311;27;36852;-50
2022/04/02 07:47:36;;;;;;;4.68;1.40;;;2.80;95.50;;;;;;5070198;28;38232;-48
2022/04/02 07:50:06;;;;;;;4.10;1.35;;;2.80;95.10;;;;;;5066514;27;37615;-50
2022/04/02 07:52:36;;;;;;;4.25;1.45;;;2.90;95.20;;;;;;5070515;28;37445;-47
2022/04/02 07:55:08;;;;;;;4.05;1.40;;;2.90;95.60;;;;;;5070214;28;36467;-51
2022/04/02 07:57:41;;;;;;;7.20;1.50;;;2.90;95.90;;;;;;5071699;27;38448;-49
2022/04/02 08:00:11;;;;;;;2.60;1.20;;;3.40;96.00;;;;;;5071530;28;37290;-50
2022/04/02 08:02:42;;;;;;;5.45;1.63;;;3.10;95.80;;;;;;5071408;28;38203;-48
2022/04/02 08:05:11;;;;;;;4.15;1.70;;;3.20;95.60;;;;;;5071800;28;36312;-52
2022/04/02 08:07:43;;;;;;;3.95;1.52;;;3.40;95.30;;;;;;5070149;27;38643;-48
2022/04/02 08:10:14;;;;;;;3.58;1.17;;;3.70;95.10;;;;;;5069962;27;37901;-49
2022/04/02 08:12:42;;;;;;;3.22;1.10;;;4.10;95.00;;;;;;5068836;27;37403;-48
2022/04/02 08:15:12;;;;;;;4.38;1.08;;;4.50;93.90;;;;;;5069477;28;37115;-51
2022/04/02 08:17:40;;;;;;;3.83;1.30;;;4.80;92.80;;;;;;5067947;28;37264;-52
2022/04/02 08:20:09;;;;;;;6.70;1.50;;;5.20;92.80;;;;;;5069567;27;39463;-49
2022/04/02 08:22:36;;;;;;;4.82;1.35;;;5.70;91.40;;;;;;5069832;27;37331;-52
2022/04/02 08:25:05;;;;;;;7.13;1.27;;;6.10;90.10;;;;;;5070676;27;37870;-50
2022/04/02 08:27:35;;;;;;;3.03;1.23;;;6.60;88.50;;;;;;5070607;28;37415;-51
2022/04/02 08:30:11;;;;;;;3.67;1.08;;;7.20;85.70;;;;;;5071131;28;38136;-49
2022/04/02 08:33:20;;;;;;;3.42;1.13;;;7.70;81.80;;;;;;5069436;27;37438;-49
2022/04/02 08:35:59;;;;;;;8.18;1.65;;;8.20;75.40;;;;;;5070173;28;36372;-50
2022/04/02 08:38:34;;;;;;;6.07;1.35;;;8.50;76.10;;;;;;5069762;28;37581;-51
2022/04/02 08:41:37;;;;;;;3.42;1.30;;;8.70;74.80;;;;;;5070089;27;37653;-53
2022/04/02 08:44:43;;;;;;;5.55;1.27;;;8.80;69.90;;;;;;5068177;27;37206;-50
2022/04/02 08:47:29;;;;;;;4.32;1.35;;;8.80;68.90;;;;;;5069336;27;34111;-50
2022/04/02 08:50:07;;;;;;;4.10;1.23;;;9.00;70.40;;;;;;5069569;27;37444;-52
2022/04/02 08:52:50;;;;;;;4.43;1.30;;;9.20;68.40;;;;;;5069920;27;37752;-51
2022/04/02 08:55:19;;;;;;;2.33;0.90;;;9.40;64.50;;;;;;5068497;27;37250;-48
2022/04/02 08:58:08;;;;;;;5.07;1.40;;;9.60;65.40;;;;;;5068244;27;35465;-51
2022/04/02 09:00:46;;;;;;;7.95;1.40;;;9.70;62.10;;;;;;5068869;27;36962;-49
2022/04/02 09:03:52;;;;;;;11.75;3.67;;;9.80;62.50;;;;;;5071035;28;36296;-50
2022/04/02 09:06:55;;;;;;;6.32;1.63;;;10.10;61.90;;;;;;5063879;28;39108;-52
2022/04/02 09:09:39;;;;;;;4.63;1.15;;;10.40;59.90;;;;;;5070537;28;36702;-48
2022/04/02 09:12:30;;;;;;;6.57;1.88;;;10.50;57.60;;;;;;5070503;27;38254;-50
2022/04/02 09:15:09;;;;;;;5.63;1.10;;;10.10;56.80;;;;;;5070106;27;36290;-53
2022/04/02 09:17:43;;;;;;;6.43;1.70;;;9.90;59.10;;;;;;5071016;27;38061;-47
2022/04/02 09:20:35;;;;;;;3.97;0.90;;;9.80;59.30;;;;;;5070064;28;37470;-51
2022/04/02 09:23:15;;;;;;;3.75;1.08;;;9.80;57.20;;;;;;5070721;27;36215;-50
2022/04/02 09:26:40;;;;;;;3.53;1.15;;;10.20;57.80;;;;;;5070378;27;38641;-48
2022/04/02 09:29:16;;;;;;;;;;;10.70;52.90;;;;;;5072109;27;37154;-49
2022/04/02 09:32:39;;;;;;;5.97;1.10;;;10.90;51.20;;;;;;5074244;28;37009;-49
2022/04/02 09:35:35;;;;;;;4.32;1.08;;;11.20;51.80;;;;;;5074013;27;36271;-50
2022/04/02 09:38:31;;;;;;;3.47;1.20;;;11.30;50.50;;;;;;5073285;27;36460;-53
2022/04/02 09:41:09;;;;;;;4.18;1.38;;;11.00;48.20;;;;;;5073719;28;37314;-51
2022/04/02 09:43:49;;;;;;;3.92;1.50;;;10.70;51.70;;;;;;5073274;27;36486;-51
2022/04/02 09:46:35;;;;;;;4.57;1.00;;;10.60;51.10;;;;;;5074345;27;36112;-51
2022/04/02 09:49:14;;;;;;;4.25;1.20;;;10.80;50.70;;;;;;5073606;27;38938;-51
2022/04/02 09:51:49;;;;;;;4.20;0.82;;;11.10;50.00;;;;;;5073550;28;37128;-50
2022/04/02 09:54:35;;;;;;;4.65;1.10;;;11.00;49.20;;;;;;5071259;27;37703;-51
2022/04/02 09:57:09;;;;;;;6.50;1.30;;;10.60;48.80;;;;;;5073541;27;39432;-48
2022/04/02 09:59:49;;;;;;;4.15;1.05;;;10.30;49.40;;;;;;5071997;27;39414;-47
2022/04/02 10:02:31;;;;;;;9.85;1.83;;;9.90;49.80;;;;;;5071463;28;38129;-51
2022/04/02 10:05:05;;;;;;;4.03;1.83;;;9.60;50.80;;;;;;5071506;28;36567;-52
2022/04/02 10:07:45;;;;;;;5.97;1.20;;;9.40;52.50;;;;;;5072209;28;37672;-51
2022/04/02 10:10:13;;;;;;;4.57;1.50;;;9.60;53.40;;;;;;5069471;27;36366;-51
2022/04/02 10:12:44;;;;;;;9.27;1.80;;;9.80;51.90;;;;;;5072121;28;37430;-51
2022/04/02 10:15:13;;;;;;;6.35;1.40;;;9.60;51.10;;;;;;5072430;27;37313;-51
2022/04/02 10:17:43;;;;;;;7.20;2.03;;;9.50;52.90;;;;;;5070960;27;37128;-51
2022/04/02 10:20:14;;;;;;;4.97;1.27;;;9.90;52.70;;;;;;5072295;28;38411;-51
2022/04/02 10:22:45;;;;;;;3.63;1.10;;;10.10;51.20;;;;;;5072234;27;37453;-49
2022/04/02 10:25:14;;;;;;;3.25;1.33;;;10.20;50.10;;;;;;5071805;27;35310;-49
2022/04/02 10:27:43;;;;;;;3.65;1.15;;;10.40;50.00;;;;;;5069624;28;37397;-49
2022/04/02 10:30:14;;;;;;;3.13;1.20;;;10.30;48.30;;;;;;5071348;27;37864;-49
2022/04/02 10:32:54;;;;;;;5.28;1.13;;;10.00;48.50;;;;;;5071656;27;35922;-49
2022/04/02 10:35:23;;;;;;;8.98;1.45;;;9.50;49.80;;;;;;5069506;28;36530;-51
2022/04/02 10:38:06;;;;;;;2.92;1.00;;;9.60;53.30;;;;;;5071384;27;36313;-53
2022/04/02 10:40:39;;;;;;;3.33;1.05;;;9.70;52.00;;;;;;5065798;27;39057;-49
2022/04/02 10:43:11;;;;;;;4.65;1.40;;;9.30;51.60;;;;;;5069890;28;37389;-48
2022/04/02 10:45:40;;;;;;;3.95;1.00;;;8.80;53.00;;;;;;5070902;27;36560;-49
2022/04/02 10:48:10;;;;;;;4.72;1.10;;;8.40;53.20;;;;;;5074163;27;37809;-51
2022/04/02 10:50:38;;;;;;;4.13;1.10;;;8.30;55.60;;;;;;5072074;28;37620;-51
2022/04/02 10:53:11;;;;;;;4.57;1.33;;;8.80;54.80;;;;;;5071793;28;38032;-51
2022/04/02 10:55:45;;;;;;;3.20;0.90;;;9.00;53.00;;;;;;5070074;27;36422;-49
2022/04/02 10:58:13;;;;;;;3.30;1.10;;;8.80;52.50;;;;;;5070910;28;37593;-50
2022/04/02 11:00:46;;;;;;;4.95;1.20;;;8.40;53.40;;;;;;5071795;28;37733;-49
2022/04/02 11:03:28;;;;;;;6.72;1.35;;;8.20;54.20;;;;;;5066017;27;38445;-48
2022/04/02 11:05:57;;;;;;;5.97;1.00;;;8.20;55.80;;;;;;5071341;28;37173;-51
2022/04/02 11:08:31;;;;;;;7.38;1.63;;;8.10;55.70;;;;;;5071904;28;37626;-51
2022/04/02 11:10:59;;;;;;;3.47;1.27;;;8.00;55.60;;;;;;5071415;27;36572;-50
2022/04/02 11:13:32;;;;;;;9.23;1.30;;;7.80;56.50;;;;;;5070592;27;36068;-50
2022/04/02 11:16:00;;;;;;;4.82;0.98;;;7.60;56.20;;;;;;5071593;27;37197;-51
2022/04/02 11:18:27;;;;;;;6.18;0.82;;;7.50;56.00;;;;;;5071034;28;38026;-52
2022/04/02 11:21:03;;;;;;;3.20;0.90;;;7.40;55.70;;;;;;5071551;27;38005;-52
2022/04/02 11:23:46;;;;;;;5.05;1.60;;;7.30;55.40;;;;;;5071811;27;38662;-48
2022/04/02 11:26:15;;;;;;;3.17;0.98;;;7.40;55.00;;;;;;5071788;27;35226;-52
2022/04/02 11:28:45;;;;;;;3.58;1.00;;;7.50;57.00;;;;;;5070445;28;39011;-51
2022/04/02 11:31:14;;;;;;;3.53;1.05;;;7.60;56.20;;;;;;5070696;27;37771;-48
2022/04/02 11:33:52;;;;;;;1.73;0.90;;;7.50;55.60;;;;;;5067975;28;37630;-50
2022/04/02 11:36:23;;;;;;;3.97;1.20;;;7.40;55.00;;;;;;5064796;27;36240;-50
2022/04/02 11:38:57;;;;;;;7.85;1.35;;;7.30;55.00;;;;;;5069495;28;36183;-49
2022/04/02 11:41:31;;;;;;;5.30;1.48;;;7.40;55.80;;;;;;5070341;27;38924;-50
2022/04/02 11:44:06;;;;;;;5.15;1.20;;;7.70;55.90;;;;;;5069727;27;37484;-51
2022/04/02 11:46:52;;;;;;;4.32;2.05;;;7.70;54.80;;;;;;5069661;27;36357;-53
2022/04/02 11:49:26;;;;;;;5.78;1.80;;;7.70;54.80;;;;;;5068624;27;38897;-51
2022/04/02 11:52:04;;;;;;;5.97;1.45;;;7.60;55.50;;;;;;5069886;28;38224;-53
2022/04/02 11:54:40;;;;;;;6.70;1.27;;;7.50;55.10;;;;;;5070137;27;37103;-51
2022/04/02 11:57:09;;;;;;;5.47;1.45;;;7.40;54.80;;;;;;5071388;28;36896;-52
2022/04/02 11:59:37;;;;;;;7.10;1.23;;;7.40;54.30;;;;;;5071278;27;37365;-51
2022/04/02 12:02:05;;;;;;;3.75;1.20;;;7.50;54.20;;;;;;5069834;27;37164;-50
2022/04/02 12:04:34;;;;;;;5.95;1.20;;;7.50;54.40;;;;;;5071372;28;41013;-48
2022/04/02 12:07:06;;;;;;;5.20;1.45;;;7.50;53.50;;;;;;5071147;28;36790;-49
2022/04/02 12:09:47;;;;;;;3.22;1.00;;;7.50;53.90;;;;;;5070418;27;36339;-49
2022/04/02 12:12:23;;;;;;;3.42;1.00;;;7.50;53.90;;;;;;5070832;27;36468;-50
2022/04/02 12:14:58;;;;;;;4.88;1.20;;;8.00;54.30;;;;;;5069421;28;37592;-51
2022/04/02 12:17:32;;;;;;;3.50;1.10;;;7.90;54.10;;;;;;5070894;27;37313;-52
2022/04/02 12:20:00;;;;;;;5.40;1.70;;;8.20;52.20;;;;;;5068638;27;37543;-52
2022/04/02 12:22:30;;;;;;;3.20;1.00;;;8.10;51.80;;;;;;5071069;28;38466;-52
2022/04/02 12:25:02;;;;;;;4.50;1.20;;;7.90;51.40;;;;;;5070178;27;37598;-49
2022/04/02 12:27:32;;;;;;;3.45;1.00;;;7.80;52.30;;;;;;5069366;28;37164;-48
2022/04/02 12:30:02;;;;;;;4.95;1.10;;;7.70;51.70;;;;;;5070910;27;38610;-53
2022/04/02 12:32:32;;;;;;;5.95;1.20;;;7.80;51.90;;;;;;5069737;27;36449;-52
2022/04/02 12:35:01;;;;;;;5.43;0.90;;;7.80;51.40;;;;;;5068186;27;37434;-49
2022/04/02 12:37:31;;;;;;;2.47;0.90;;;7.70;50.70;;;;;;5070959;28;36016;-52
2022/04/02 12:40:14;;;;;;;4.72;1.10;;;7.80;51.10;;;;;;5070146;28;36461;-52
2022/04/02 12:42:44;;;;;;;4.28;0.90;;;7.90;51.10;;;;;;5071027;28;38553;-49
2022/04/02 12:45:13;;;;;;;4.05;1.30;;;8.10;51.50;;;;;;5068998;27;36806;-52
2022/04/02 12:47:41;;;;;;;4.25;1.25;;;8.10;49.70;;;;;;5071133;27;36395;-52
2022/04/02 12:50:13;;;;;;;2.70;0.98;;;8.00;50.50;;;;;;5069227;27;39707;-51
2022/04/02 12:52:48;;;;;;;3.20;0.85;;;7.80;51.60;;;;;;5071759;27;39053;-49
2022/04/02 12:55:21;;;;;;;1.95;0.77;;;7.70;50.70;;;;;;5071005;28;39701;-51
2022/04/02 12:58:01;;;;;;;2.42;0.68;;;7.70;51.60;;;;;;5070057;27;36506;-47
2022/04/02 13:00:36;;;;;;;3.72;1.08;;;7.80;50.20;;;;;;5068745;27;37270;-51
2022/04/02 13:03:04;;;;;;;4.13;1.00;;;7.90;49.40;;;;;;5069122;28;39100;-52
2022/04/02 13:05:51;;;;;;;2.85;0.75;;;8.00;50.10;;;;;;5071782;27;38008;-51
2022/04/02 13:08:27;;;;;;;3.15;0.82;;;8.00;49.90;;;;;;5074095;27;37121;-52
2022/04/02 13:10:58;;;;;;;2.28;0.82;;;7.90;48.50;;;;;;5074014;27;37544;-52
2022/04/02 13:13:38;;;;;;;6.15;1.50;;;7.90;49.00;;;;;;5073798;27;37636;-50
2022/04/02 13:16:07;;;;;;;2.55;1.00;;;7.80;50.50;;;;;;5072118;28;37280;-52
2022/04/02 13:21:22;;;;;;;3.85;1.40;;;7.60;50.80;;;;;;5074067;28;38062;-51
2022/04/02 13:24:24;;;;;;;3.53;1.10;;;7.70;49.80;;;;;;5073468;27;37636;-52